Grande Portogallo — IBZW — position and weather

sailwx.info

Track history (hours):
 
Tides and Currents Weather Stations Pressure Air Temp Water Temp Dewpoint Dewpoint Depression Visibility Wind Speed Wind Dir Waves Ship Positions

Grande Portogallo

Last reported at 2014-Oct-23 22:32 UTC. Time now 2014-Oct-26 02:01 UTC.
Position N 38°57' E 003°29'.

Length 176 m; draft 7.9 m.

Type: Cargo ship. MMSI: 247065500.

Date/timePositionNaut miles runAvg speedWind from/ knotsBaromVisibWave heightAir tempDewpointWater temp
2014-Oct-23 22:32N 38°57' E 003°29'1615.8
2014-Oct-23 21:33N 39°01' E 003°09'1615.9
2014-Oct-23 20:33N 39°04' E 002°49'1815.6
2014-Oct-23 19:25N 39°06' E 002°27'1516.2
2014-Oct-23 18:31N 39°08' E 002°08'3215.6
2014-Oct-23 16:27N 39°13' E 001°27'1516.1
2014-Oct-23 15:30N 39°15' E 001°07'3415.9
2014-Oct-23 13:22N 39°21' E 000°24'2915.7
2014-Oct-23 11:32N 39°25' W 000°13'4 4.4
2014-Oct-23 10:31N 39°26' W 000°18'0 0.0
2014-Oct-23 09:31N 39°26' W 000°18'0 0.0
2014-Oct-23 08:31N 39°26' W 000°18'0 0.0
2014-Oct-23 07:31N 39°26' W 000°18'0 0.0
2014-Oct-23 06:31N 39°26' W 000°18'0 0.0
2014-Oct-23 05:31N 39°26' W 000°18'0 0.0
2014-Oct-23 04:31N 39°26' W 000°18'0 0.0
2014-Oct-23 03:31N 39°26' W 000°18'2 1.6
2014-Oct-23 02:33N 39°25' W 000°17'9311.6
2014-Oct-22 18:33N 37°53' W 000°14'1515.2
2014-Oct-22 17:33N 37°40' W 000°25'1515.0
2014-Oct-22 16:32N 37°28' W 000°38'1414.4
2014-Oct-22 15:32N 37°19' W 000°51'22215.5
2014-Oct-22 01:12N 36°00' W 005°10'1117.4
2014-Oct-22 00:33N 35°58' W 005°24'13414.9
2014-Oct-21 15:31N 36°18' W 008°08'1715.5
2014-Oct-21 14:27N 36°22' W 008°28'1515.4
2014-Oct-21 13:29N 36°26' W 008°47'1515.7
2014-Oct-21 12:33N 36°30' W 009°04'1515.1
2014-Oct-21 11:33N 36°36' W 009°21'1515.7
2014-Oct-21 10:33N 36°48' W 009°34'1615.6
2014-Oct-21 09:33N 37°03' W 009°38'1615.6
2014-Oct-21 08:33N 37°18' W 009°42'1515.1
2014-Oct-21 07:33N 37°33' W 009°47'1616.1
2014-Oct-21 06:33N 37°48' W 009°51'1616.0
2014-Oct-21 05:33N 38°04' W 009°56'1615.4
2014-Oct-21 04:32N 38°19' W 010°01'1515.5
2014-Oct-21 03:33N 38°34' W 010°05'1515.2
2014-Oct-21 02:33N 38°49' W 010°07'1716.0
2014-Oct-21 01:30N 39°06' W 010°08'  
2014-Oct-18 17:08N 50°16' W 001°23'2312.1
2014-Oct-18 15:13N 50°22' W 000°49'913.5
2014-Oct-18 14:33N 50°25' W 000°35'7414.6
2014-Oct-18 09:30N 50°55' E 001°11'1313.6
2014-Oct-18 08:33N 51°03' E 001°26'1313.4
2014-Oct-18 07:34N 51°11' E 001°44'1414.0
2014-Oct-18 06:33N 51°22' E 001°57'1414.1
2014-Oct-18 05:33N 51°21' E 002°19'1515.4
2014-Oct-18 04:33N 51°22' E 002°44'1615.8
2014-Oct-18 03:33N 51°24' E 003°09'1616.2
2014-Oct-18 02:33N 51°26' E 003°35'1212.3
2014-Oct-18 01:33N 51°21' E 003°53'1211.6
2014-Oct-18 00:34N 51°24' E 004°11'9 8.9
2014-Oct-17 23:34N 51°16' E 004°17'2 2.4
2014-Oct-17 22:33N 51°17' E 004°14'1 0.8
2014-Oct-17 21:33N 51°16' E 004°13'0 0.0
2014-Oct-17 20:30N 51°16' E 004°13'0 0.0
2014-Oct-17 19:27N 51°16' E 004°13'0 0.0
2014-Oct-17 18:33N 51°16' E 004°13'0 0.0
2014-Oct-17 17:33N 51°16' E 004°13'0 0.0
2014-Oct-17 16:33N 51°16' E 004°13'0 0.0
2014-Oct-17 15:30N 51°16' E 004°13'0 0.0
2014-Oct-17 14:33N 51°16' E 004°13'0 0.0
2014-Oct-17 13:33N 51°16' E 004°13'0 0.0
2014-Oct-17 12:33N 51°16' E 004°13'0 0.0
2014-Oct-17 11:30N 51°16' E 004°13'0 0.0
2014-Oct-17 10:33N 51°16' E 004°13'0 0.0
2014-Oct-17 09:33N 51°16' E 004°13'0 0.0
2014-Oct-17 08:33N 51°16' E 004°13'0 0.0
2014-Oct-17 07:33N 51°16' E 004°13'0 0.0
2014-Oct-17 06:30N 51°16' E 004°13'0 0.0
2014-Oct-17 05:30N 51°16' E 004°13'0 0.0
2014-Oct-17 04:30N 51°16' E 004°13'0 0.0
2014-Oct-17 03:33N 51°16' E 004°13'0 0.0
2014-Oct-17 02:33N 51°16' E 004°13'0 0.2
2014-Oct-17 01:33N 51°16' E 004°13'2 2.4
2014-Oct-17 00:34N 51°16' E 004°17'2 2.2
2014-Oct-16 23:33N 51°17' E 004°19'8 8.5
2014-Oct-16 22:33N 51°22' E 004°08'8 7.8
2014-Oct-16 21:33N 51°22' E 003°56'9 9.2
2014-Oct-16 20:33N 51°25' E 003°42'10 9.7
2014-Oct-16 19:33N 51°30' E 003°28'1312.4
2014-Oct-16 18:32N 51°41' E 003°18'7 7.0
2014-Oct-16 17:32N 51°48' E 003°20'0 0.0
2014-Oct-16 16:22N 51°48' E 003°20'0 0.0
2014-Oct-16 15:27N 51°48' E 003°20'0 0.1
2014-Oct-16 14:21N 51°48' E 003°20'5 2.3
2014-Oct-16 12:19N 51°49' E 003°12'1011.6
2014-Oct-16 11:26N 51°58' E 003°19'1816.4
2014-Oct-16 10:22N 52°15' E 003°24'2813.8
2014-Oct-16 08:22N 52°42' E 003°38'1113.6
2014-Oct-16 07:33N 52°50' E 003°49'1515.0
2014-Oct-16 06:34N 53°00' E 004°07'2216.6
2014-Oct-16 05:15N 53°17' E 004°30'1216.5
2014-Oct-16 04:32N 53°28' E 004°38'1716.8
2014-Oct-16 03:33N 53°34' E 005°04'1616.3
2014-Oct-16 02:33N 53°39' E 005°30'1515.5
2014-Oct-16 01:34N 53°44' E 005°55'1515.1
2014-Oct-16 00:33N 53°48' E 006°19'4515.2
2014-Oct-15 21:34N 54°00' E 007°34'1616.1
2014-Oct-15 20:33N 54°02' E 008°01'1716.7
2014-Oct-15 19:34N 53°59' E 008°29'1615.5
2014-Oct-15 18:34N 53°50' E 008°51'1413.7
2014-Oct-15 17:33N 53°53' E 009°14'1514.6
2014-Oct-15 16:33N 53°41' E 009°30'1211.9
2014-Oct-15 15:34N 53°34' E 009°45'9 9.0
2014-Oct-15 14:34N 53°32' E 009°60'0 0.0
2014-Oct-15 13:27N 53°32' E 009°60'0 0.0
2014-Oct-15 12:33N 53°32' E 009°60'0 0.0
2014-Oct-15 11:33N 53°32' E 009°60'0 0.0
2014-Oct-15 10:33N 53°32' E 009°60'0 0.0
2014-Oct-15 09:33N 53°32' E 009°60'0 0.0
2014-Oct-15 08:33N 53°32' E 009°60'0 0.0
2014-Oct-15 07:33N 53°32' E 009°60'0 0.0
2014-Oct-15 06:30N 53°32' E 009°60'0 0.0
2014-Oct-15 05:33N 53°32' E 009°60'0 0.0
2014-Oct-15 04:33N 53°32' E 009°60'0 0.0
2014-Oct-15 03:33N 53°32' E 009°60'0 0.0
2014-Oct-15 02:33N 53°32' E 009°60'0 0.0
2014-Oct-15 01:33N 53°32' E 009°60'0 0.0
2014-Oct-15 00:30N 53°32' E 009°60'0 0.0
2014-Oct-14 23:33N 53°32' E 009°60'0 0.2
2014-Oct-14 22:33N 53°32' E 009°60'7 6.7
2014-Oct-14 21:33N 53°33' E 009°49'1111.3
2014-Oct-14 20:33N 53°38' E 009°32'1514.5
2014-Oct-14 19:33N 53°51' E 009°19'1212.0
2014-Oct-14 18:34N 53°51' E 008°59'1413.7
2014-Oct-14 17:34N 53°57' E 008°38'1616.5
2014-Oct-14 16:33N 53°60' E 008°10'1615.4
2014-Oct-14 15:33N 53°56' E 007°45'1716.6
2014-Oct-14 14:31N 53°52' E 007°17'3316.6
2014-Oct-14 12:32N 53°42' E 006°23'1111.8
2014-Oct-14 11:33N 53°34' E 006°39'1414.2
2014-Oct-14 10:33N 53°25' E 006°56'9 9.3
2014-Oct-14 09:33N 53°20' E 007°09'1 0.9
2014-Oct-14 08:31N 53°20' E 007°11'0 0.0
2014-Oct-14 07:31N 53°20' E 007°11'0 0.0
2014-Oct-14 06:31N 53°20' E 007°11'0 0.0
2014-Oct-14 05:31N 53°20' E 007°11'0 0.0
2014-Oct-14 04:31N 53°20' E 007°11'0 0.0
2014-Oct-14 03:31N 53°20' E 007°11'0 0.0
2014-Oct-14 02:31N 53°20' E 007°11'0 0.0
2014-Oct-14 01:31N 53°20' E 007°11'0 0.0
2014-Oct-14 00:31N 53°20' E 007°11'0 0.0
2014-Oct-13 23:31N 53°20' E 007°11'  
Track history (hours):
 
Tides and Currents Weather Stations Pressure Air Temp Water Temp Dewpoint Dewpoint Depression Visibility Wind Speed Wind Dir Waves Ship Positions

Grande Portogallo

Last reported at 2014-Oct-23 22:32 UTC. Time now 2014-Oct-26 02:01 UTC.
Position N 38°57' E 003°29'.

Length 176 m; draft 7.9 m.

Type: Cargo ship. MMSI: 247065500.

Date/timePositionNaut miles runAvg speedWind from/ knotsBaromVisibWave heightAir tempDewpointWater temp
2014-Oct-23 22:32N 38°57' E 003°29'1615.8
2014-Oct-23 21:33N 39°01' E 003°09'1615.9
2014-Oct-23 20:33N 39°04' E 002°49'1815.6
2014-Oct-23 19:25N 39°06' E 002°27'1516.2
2014-Oct-23 18:31N 39°08' E 002°08'3215.6
2014-Oct-23 16:27N 39°13' E 001°27'1516.1
2014-Oct-23 15:30N 39°15' E 001°07'3415.9
2014-Oct-23 13:22N 39°21' E 000°24'2915.7
2014-Oct-23 11:32N 39°25' W 000°13'4 4.4
2014-Oct-23 10:31N 39°26' W 000°18'0 0.0
2014-Oct-23 09:31N 39°26' W 000°18'0 0.0
2014-Oct-23 08:31N 39°26' W 000°18'0 0.0
2014-Oct-23 07:31N 39°26' W 000°18'0 0.0
2014-Oct-23 06:31N 39°26' W 000°18'0 0.0
2014-Oct-23 05:31N 39°26' W 000°18'0 0.0
2014-Oct-23 04:31N 39°26' W 000°18'0 0.0
2014-Oct-23 03:31N 39°26' W 000°18'2 1.6
2014-Oct-23 02:33N 39°25' W 000°17'9311.6
2014-Oct-22 18:33N 37°53' W 000°14'1515.2
2014-Oct-22 17:33N 37°40' W 000°25'1515.0
2014-Oct-22 16:32N 37°28' W 000°38'1414.4
2014-Oct-22 15:32N 37°19' W 000°51'22215.5
2014-Oct-22 01:12N 36°00' W 005°10'1117.4
2014-Oct-22 00:33N 35°58' W 005°24'13414.9
2014-Oct-21 15:31N 36°18' W 008°08'1715.5
2014-Oct-21 14:27N 36°22' W 008°28'1515.4
2014-Oct-21 13:29N 36°26' W 008°47'1515.7
2014-Oct-21 12:33N 36°30' W 009°04'1515.1
2014-Oct-21 11:33N 36°36' W 009°21'1515.7
2014-Oct-21 10:33N 36°48' W 009°34'1615.6
2014-Oct-21 09:33N 37°03' W 009°38'1615.6
2014-Oct-21 08:33N 37°18' W 009°42'1515.1
2014-Oct-21 07:33N 37°33' W 009°47'1616.1
2014-Oct-21 06:33N 37°48' W 009°51'1616.0
2014-Oct-21 05:33N 38°04' W 009°56'1615.4
2014-Oct-21 04:32N 38°19' W 010°01'1515.5
2014-Oct-21 03:33N 38°34' W 010°05'1515.2
2014-Oct-21 02:33N 38°49' W 010°07'1716.0
2014-Oct-21 01:30N 39°06' W 010°08'  
2014-Oct-18 17:08N 50°16' W 001°23'2312.1
2014-Oct-18 15:13N 50°22' W 000°49'913.5
2014-Oct-18 14:33N 50°25' W 000°35'7414.6
2014-Oct-18 09:30N 50°55' E 001°11'1313.6
2014-Oct-18 08:33N 51°03' E 001°26'1313.4
2014-Oct-18 07:34N 51°11' E 001°44'1414.0
2014-Oct-18 06:33N 51°22' E 001°57'1414.1
2014-Oct-18 05:33N 51°21' E 002°19'1515.4
2014-Oct-18 04:33N 51°22' E 002°44'1615.8
2014-Oct-18 03:33N 51°24' E 003°09'1616.2
2014-Oct-18 02:33N 51°26' E 003°35'1212.3
2014-Oct-18 01:33N 51°21' E 003°53'1211.6
2014-Oct-18 00:34N 51°24' E 004°11'9 8.9
2014-Oct-17 23:34N 51°16' E 004°17'2 2.4
2014-Oct-17 22:33N 51°17' E 004°14'1 0.8
2014-Oct-17 21:33N 51°16' E 004°13'0 0.0
2014-Oct-17 20:30N 51°16' E 004°13'0 0.0
2014-Oct-17 19:27N 51°16' E 004°13'0 0.0
2014-Oct-17 18:33N 51°16' E 004°13'0 0.0
2014-Oct-17 17:33N 51°16' E 004°13'0 0.0
2014-Oct-17 16:33N 51°16' E 004°13'0 0.0
2014-Oct-17 15:30N 51°16' E 004°13'0 0.0
2014-Oct-17 14:33N 51°16' E 004°13'0 0.0
2014-Oct-17 13:33N 51°16' E 004°13'0 0.0
2014-Oct-17 12:33N 51°16' E 004°13'0 0.0
2014-Oct-17 11:30N 51°16' E 004°13'0 0.0
2014-Oct-17 10:33N 51°16' E 004°13'0 0.0
2014-Oct-17 09:33N 51°16' E 004°13'0 0.0
2014-Oct-17 08:33N 51°16' E 004°13'0 0.0
2014-Oct-17 07:33N 51°16' E 004°13'0 0.0
2014-Oct-17 06:30N 51°16' E 004°13'0 0.0
2014-Oct-17 05:30N 51°16' E 004°13'0 0.0
2014-Oct-17 04:30N 51°16' E 004°13'0 0.0
2014-Oct-17 03:33N 51°16' E 004°13'0 0.0
2014-Oct-17 02:33N 51°16' E 004°13'0 0.2
2014-Oct-17 01:33N 51°16' E 004°13'2 2.4
2014-Oct-17 00:34N 51°16' E 004°17'2 2.2
2014-Oct-16 23:33N 51°17' E 004°19'8 8.5
2014-Oct-16 22:33N 51°22' E 004°08'8 7.8
2014-Oct-16 21:33N 51°22' E 003°56'9 9.2
2014-Oct-16 20:33N 51°25' E 003°42'10 9.7
2014-Oct-16 19:33N 51°30' E 003°28'1312.4
2014-Oct-16 18:32N 51°41' E 003°18'7 7.0
2014-Oct-16 17:32N 51°48' E 003°20'0 0.0
2014-Oct-16 16:22N 51°48' E 003°20'0 0.0
2014-Oct-16 15:27N 51°48' E 003°20'0 0.1
2014-Oct-16 14:21N 51°48' E 003°20'5 2.3
2014-Oct-16 12:19N 51°49' E 003°12'1011.6
2014-Oct-16 11:26N 51°58' E 003°19'1816.4
2014-Oct-16 10:22N 52°15' E 003°24'2813.8
2014-Oct-16 08:22N 52°42' E 003°38'1113.6
2014-Oct-16 07:33N 52°50' E 003°49'1515.0
2014-Oct-16 06:34N 53°00' E 004°07'2216.6
2014-Oct-16 05:15N 53°17' E 004°30'1216.5
2014-Oct-16 04:32N 53°28' E 004°38'1716.8
2014-Oct-16 03:33N 53°34' E 005°04'1616.3
2014-Oct-16 02:33N 53°39' E 005°30'1515.5
2014-Oct-16 01:34N 53°44' E 005°55'1515.1
2014-Oct-16 00:33N 53°48' E 006°19'4515.2
2014-Oct-15 21:34N 54°00' E 007°34'1616.1
2014-Oct-15 20:33N 54°02' E 008°01'1716.7
2014-Oct-15 19:34N 53°59' E 008°29'1615.5
2014-Oct-15 18:34N 53°50' E 008°51'1413.7
2014-Oct-15 17:33N 53°53' E 009°14'1514.6
2014-Oct-15 16:33N 53°41' E 009°30'1211.9
2014-Oct-15 15:34N 53°34' E 009°45'9 9.0
2014-Oct-15 14:34N 53°32' E 009°60'0 0.0
2014-Oct-15 13:27N 53°32' E 009°60'0 0.0
2014-Oct-15 12:33N 53°32' E 009°60'0 0.0
2014-Oct-15 11:33N 53°32' E 009°60'0 0.0
2014-Oct-15 10:33N 53°32' E 009°60'0 0.0
2014-Oct-15 09:33N 53°32' E 009°60'0 0.0
2014-Oct-15 08:33N 53°32' E 009°60'0 0.0
2014-Oct-15 07:33N 53°32' E 009°60'0 0.0
2014-Oct-15 06:30N 53°32' E 009°60'0 0.0
2014-Oct-15 05:33N 53°32' E 009°60'0 0.0
2014-Oct-15 04:33N 53°32' E 009°60'0 0.0
2014-Oct-15 03:33N 53°32' E 009°60'0 0.0
2014-Oct-15 02:33N 53°32' E 009°60'0 0.0
2014-Oct-15 01:33N 53°32' E 009°60'0 0.0
2014-Oct-15 00:30N 53°32' E 009°60'0 0.0
2014-Oct-14 23:33N 53°32' E 009°60'0 0.2
2014-Oct-14 22:33N 53°32' E 009°60'7 6.7
2014-Oct-14 21:33N 53°33' E 009°49'1111.3
2014-Oct-14 20:33N 53°38' E 009°32'1514.5
2014-Oct-14 19:33N 53°51' E 009°19'1212.0
2014-Oct-14 18:34N 53°51' E 008°59'1413.7
2014-Oct-14 17:34N 53°57' E 008°38'1616.5
2014-Oct-14 16:33N 53°60' E 008°10'1615.4
2014-Oct-14 15:33N 53°56' E 007°45'1716.6
2014-Oct-14 14:31N 53°52' E 007°17'3316.6
2014-Oct-14 12:32N 53°42' E 006°23'1111.8
2014-Oct-14 11:33N 53°34' E 006°39'1414.2
2014-Oct-14 10:33N 53°25' E 006°56'9 9.3
2014-Oct-14 09:33N 53°20' E 007°09'1 0.9
2014-Oct-14 08:31N 53°20' E 007°11'0 0.0
2014-Oct-14 07:31N 53°20' E 007°11'0 0.0
2014-Oct-14 06:31N 53°20' E 007°11'0 0.0
2014-Oct-14 05:31N 53°20' E 007°11'0 0.0
2014-Oct-14 04:31N 53°20' E 007°11'0 0.0
2014-Oct-14 03:31N 53°20' E 007°11'0 0.0
2014-Oct-14 02:31N 53°20' E 007°11'0 0.0
2014-Oct-14 01:31N 53°20' E 007°11'0 0.0
2014-Oct-14 00:31N 53°20' E 007°11'0 0.0
2014-Oct-13 23:31N 53°20' E 007°11'  

Dump ship's entire track history